sensor_id;sensor_type;location;lat;lon;timestamp;P1;durP1;ratioP1;P2;durP2;ratioP2
28623;SDS011;15813;46.932;19.658;2023-05-03T00:00:22;14.27;;;8.48;;
28623;SDS011;15813;46.932;19.658;2023-05-03T00:02:50;11.48;;;7.82;;
28623;SDS011;15813;46.932;19.658;2023-05-03T00:05:18;18.85;;;8.90;;
28623;SDS011;15813;46.932;19.658;2023-05-03T00:07:43;13.68;;;8.23;;
28623;SDS011;15813;46.932;19.658;2023-05-03T00:10:12;12.63;;;8.52;;
28623;SDS011;15813;46.932;19.658;2023-05-03T00:12:40;13.80;;;8.18;;
28623;SDS011;15813;46.932;19.658;2023-05-03T00:15:06;12.95;;;8.05;;
28623;SDS011;15813;46.932;19.658;2023-05-03T00:17:31;15.38;;;8.18;;
28623;SDS011;15813;46.932;19.658;2023-05-03T00:19:57;16.88;;;7.78;;
28623;SDS011;15813;46.932;19.658;2023-05-03T00:22:22;12.80;;;8.48;;
28623;SDS011;15813;46.932;19.658;2023-05-03T00:24:47;13.93;;;7.97;;
28623;SDS011;15813;46.932;19.658;2023-05-03T00:27:15;9.20;;;7.82;;
28623;SDS011;15813;46.932;19.658;2023-05-03T00:29:40;14.70;;;7.75;;
28623;SDS011;15813;46.932;19.658;2023-05-03T00:32:05;12.88;;;8.05;;
28623;SDS011;15813;46.932;19.658;2023-05-03T00:34:31;12.45;;;8.52;;
28623;SDS011;15813;46.932;19.658;2023-05-03T00:36:57;13.73;;;7.65;;
28623;SDS011;15813;46.932;19.658;2023-05-03T00:39:22;9.43;;;7.93;;
28623;SDS011;15813;46.932;19.658;2023-05-03T00:41:47;13.13;;;7.50;;
28623;SDS011;15813;46.932;19.658;2023-05-03T00:44:13;12.00;;;7.55;;
28623;SDS011;15813;46.932;19.658;2023-05-03T00:46:39;13.93;;;7.93;;
28623;SDS011;15813;46.932;19.658;2023-05-03T00:49:04;9.80;;;6.63;;
28623;SDS011;15813;46.932;19.658;2023-05-03T00:51:30;11.60;;;7.03;;
28623;SDS011;15813;46.932;19.658;2023-05-03T00:53:55;16.45;;;7.30;;
28623;SDS011;15813;46.932;19.658;2023-05-03T00:56:21;9.05;;;7.07;;
28623;SDS011;15813;46.932;19.658;2023-05-03T00:58:47;7.18;;;6.45;;
28623;SDS011;15813;46.932;19.658;2023-05-03T01:01:13;10.27;;;7.30;;
28623;SDS011;15813;46.932;19.658;2023-05-03T01:03:39;11.35;;;7.00;;
28623;SDS011;15813;46.932;19.658;2023-05-03T01:06:17;13.15;;;7.07;;
28623;SDS011;15813;46.932;19.658;2023-05-03T01:08:49;11.05;;;7.25;;
28623;SDS011;15813;46.932;19.658;2023-05-03T01:11:26;14.65;;;7.43;;
28623;SDS011;15813;46.932;19.658;2023-05-03T01:16:27;13.00;;;7.32;;
28623;SDS011;15813;46.932;19.658;2023-05-03T01:18:54;13.73;;;7.30;;
28623;SDS011;15813;46.932;19.658;2023-05-03T01:21:21;12.45;;;8.50;;
28623;SDS011;15813;46.932;19.658;2023-05-03T01:26:19;11.27;;;7.57;;
28623;SDS011;15813;46.932;19.658;2023-05-03T01:28:45;13.02;;;7.68;;
28623;SDS011;15813;46.932;19.658;2023-05-03T01:31:11;16.85;;;8.82;;
28623;SDS011;15813;46.932;19.658;2023-05-03T01:33:40;16.05;;;8.30;;
28623;SDS011;15813;46.932;19.658;2023-05-03T01:38:35;13.55;;;7.75;;
28623;SDS011;15813;46.932;19.658;2023-05-03T01:41:01;13.85;;;7.63;;
28623;SDS011;15813;46.932;19.658;2023-05-03T01:43:30;9.90;;;7.97;;
28623;SDS011;15813;46.932;19.658;2023-05-03T01:45:56;13.30;;;9.38;;
28623;SDS011;15813;46.932;19.658;2023-05-03T01:48:21;13.20;;;8.50;;
28623;SDS011;15813;46.932;19.658;2023-05-03T01:50:46;15.37;;;8.30;;
28623;SDS011;15813;46.932;19.658;2023-05-03T01:53:12;14.82;;;9.88;;
28623;SDS011;15813;46.932;19.658;2023-05-03T01:55:37;10.00;;;7.90;;
28623;SDS011;15813;46.932;19.658;2023-05-03T01:58:02;11.70;;;8.68;;
28623;SDS011;15813;46.932;19.658;2023-05-03T02:00:28;12.95;;;9.00;;
28623;SDS011;15813;46.932;19.658;2023-05-03T02:02:53;13.38;;;8.05;;
28623;SDS011;15813;46.932;19.658;2023-05-03T02:05:18;10.65;;;8.52;;
28623;SDS011;15813;46.932;19.658;2023-05-03T02:07:43;14.90;;;8.70;;
28623;SDS011;15813;46.932;19.658;2023-05-03T02:10:09;15.55;;;8.35;;
28623;SDS011;15813;46.932;19.658;2023-05-03T02:12:41;12.80;;;8.77;;
28623;SDS011;15813;46.932;19.658;2023-05-03T02:15:07;15.97;;;8.20;;
28623;SDS011;15813;46.932;19.658;2023-05-03T02:17:32;13.63;;;8.68;;
28623;SDS011;15813;46.932;19.658;2023-05-03T02:19:58;11.98;;;7.63;;
28623;SDS011;15813;46.932;19.658;2023-05-03T02:22:23;14.80;;;8.55;;
28623;SDS011;15813;46.932;19.658;2023-05-03T02:24:49;20.52;;;8.20;;
28623;SDS011;15813;46.932;19.658;2023-05-03T02:27:14;10.27;;;7.40;;
28623;SDS011;15813;46.932;19.658;2023-05-03T02:29:39;13.18;;;8.13;;
28623;SDS011;15813;46.932;19.658;2023-05-03T02:32:05;12.52;;;7.82;;
28623;SDS011;15813;46.932;19.658;2023-05-03T02:34:31;8.82;;;7.05;;
28623;SDS011;15813;46.932;19.658;2023-05-03T02:36:56;9.20;;;7.47;;
28623;SDS011;15813;46.932;19.658;2023-05-03T02:39:22;11.23;;;7.75;;
28623;SDS011;15813;46.932;19.658;2023-05-03T02:41:47;13.02;;;8.32;;
28623;SDS011;15813;46.932;19.658;2023-05-03T02:44:12;13.52;;;7.30;;
28623;SDS011;15813;46.932;19.658;2023-05-03T02:46:37;12.13;;;7.82;;
28623;SDS011;15813;46.932;19.658;2023-05-03T02:49:04;16.48;;;8.50;;
28623;SDS011;15813;46.932;19.658;2023-05-03T02:51:29;8.63;;;6.82;;
28623;SDS011;15813;46.932;19.658;2023-05-03T02:53:55;11.57;;;7.78;;
28623;SDS011;15813;46.932;19.658;2023-05-03T02:56:20;14.35;;;8.25;;
28623;SDS011;15813;46.932;19.658;2023-05-03T02:58:45;10.50;;;7.45;;
28623;SDS011;15813;46.932;19.658;2023-05-03T03:01:10;10.87;;;7.77;;
28623;SDS011;15813;46.932;19.658;2023-05-03T03:03:36;10.30;;;7.03;;
28623;SDS011;15813;46.932;19.658;2023-05-03T03:06:01;13.35;;;7.75;;
28623;SDS011;15813;46.932;19.658;2023-05-03T03:08:26;11.68;;;7.55;;
28623;SDS011;15813;46.932;19.658;2023-05-03T03:10:52;15.93;;;7.28;;
28623;SDS011;15813;46.932;19.658;2023-05-03T03:13:17;10.30;;;6.68;;
28623;SDS011;15813;46.932;19.658;2023-05-03T03:15:42;12.68;;;6.50;;
28623;SDS011;15813;46.932;19.658;2023-05-03T03:18:08;9.55;;;6.80;;
28623;SDS011;15813;46.932;19.658;2023-05-03T03:20:33;16.88;;;6.80;;
28623;SDS011;15813;46.932;19.658;2023-05-03T03:22:58;14.70;;;7.45;;
28623;SDS011;15813;46.932;19.658;2023-05-03T03:25:24;11.90;;;7.38;;
28623;SDS011;15813;46.932;19.658;2023-05-03T03:27:49;11.38;;;7.47;;
28623;SDS011;15813;46.932;19.658;2023-05-03T03:30:15;11.48;;;7.28;;
28623;SDS011;15813;46.932;19.658;2023-05-03T03:32:40;15.00;;;7.85;;
28623;SDS011;15813;46.932;19.658;2023-05-03T03:35:05;11.63;;;6.97;;
28623;SDS011;15813;46.932;19.658;2023-05-03T03:37:32;11.32;;;6.45;;
28623;SDS011;15813;46.932;19.658;2023-05-03T03:39:57;10.88;;;7.38;;
28623;SDS011;15813;46.932;19.658;2023-05-03T03:42:23;15.02;;;7.40;;
28623;SDS011;15813;46.932;19.658;2023-05-03T03:44:49;11.98;;;7.72;;
28623;SDS011;15813;46.932;19.658;2023-05-03T03:47:15;10.20;;;7.32;;
28623;SDS011;15813;46.932;19.658;2023-05-03T03:49:40;13.88;;;7.55;;
28623;SDS011;15813;46.932;19.658;2023-05-03T03:52:05;11.43;;;8.05;;
28623;SDS011;15813;46.932;19.658;2023-05-03T03:54:31;13.98;;;6.80;;
28623;SDS011;15813;46.932;19.658;2023-05-03T03:56:56;19.92;;;7.72;;
28623;SDS011;15813;46.932;19.658;2023-05-03T03:59:22;14.90;;;7.15;;
28623;SDS011;15813;46.932;19.658;2023-05-03T04:01:47;12.27;;;6.97;;
28623;SDS011;15813;46.932;19.658;2023-05-03T04:04:12;12.83;;;6.93;;
28623;SDS011;15813;46.932;19.658;2023-05-03T04:06:37;12.20;;;7.40;;
28623;SDS011;15813;46.932;19.658;2023-05-03T04:09:03;9.02;;;6.13;;
28623;SDS011;15813;46.932;19.658;2023-05-03T04:11:28;11.48;;;7.40;;
28623;SDS011;15813;46.932;19.658;2023-05-03T04:13:53;14.15;;;6.93;;
28623;SDS011;15813;46.932;19.658;2023-05-03T04:16:18;11.68;;;6.82;;
28623;SDS011;15813;46.932;19.658;2023-05-03T04:18:44;12.98;;;6.63;;
28623;SDS011;15813;46.932;19.658;2023-05-03T04:21:09;18.65;;;7.03;;
28623;SDS011;15813;46.932;19.658;2023-05-03T04:23:35;12.88;;;6.30;;
28623;SDS011;15813;46.932;19.658;2023-05-03T04:26:00;11.82;;;6.70;;
28623;SDS011;15813;46.932;19.658;2023-05-03T04:28:26;11.07;;;6.60;;
28623;SDS011;15813;46.932;19.658;2023-05-03T04:30:51;9.60;;;5.93;;
28623;SDS011;15813;46.932;19.658;2023-05-03T04:33:17;7.07;;;5.80;;
28623;SDS011;15813;46.932;19.658;2023-05-03T04:35:42;8.55;;;6.15;;
28623;SDS011;15813;46.932;19.658;2023-05-03T04:38:07;8.00;;;6.28;;
28623;SDS011;15813;46.932;19.658;2023-05-03T04:40:33;10.77;;;7.03;;
28623;SDS011;15813;46.932;19.658;2023-05-03T04:42:59;8.88;;;6.38;;
28623;SDS011;15813;46.932;19.658;2023-05-03T04:45:25;11.68;;;7.00;;
28623;SDS011;15813;46.932;19.658;2023-05-03T04:47:51;12.07;;;6.43;;
28623;SDS011;15813;46.932;19.658;2023-05-03T04:50:16;11.82;;;5.93;;
28623;SDS011;15813;46.932;19.658;2023-05-03T04:52:41;11.38;;;6.20;;
28623;SDS011;15813;46.932;19.658;2023-05-03T04:55:07;7.93;;;5.43;;
28623;SDS011;15813;46.932;19.658;2023-05-03T04:57:32;9.85;;;5.72;;
28623;SDS011;15813;46.932;19.658;2023-05-03T04:59:58;8.00;;;5.43;;
28623;SDS011;15813;46.932;19.658;2023-05-03T05:02:23;7.70;;;5.13;;
28623;SDS011;15813;46.932;19.658;2023-05-03T05:04:48;11.93;;;5.50;;
28623;SDS011;15813;46.932;19.658;2023-05-03T05:07:13;8.00;;;5.32;;
28623;SDS011;15813;46.932;19.658;2023-05-03T05:09:39;9.77;;;4.85;;
28623;SDS011;15813;46.932;19.658;2023-05-03T05:12:04;11.50;;;5.50;;
28623;SDS011;15813;46.932;19.658;2023-05-03T05:14:30;10.43;;;5.43;;
28623;SDS011;15813;46.932;19.658;2023-05-03T05:16:55;11.10;;;4.80;;
28623;SDS011;15813;46.932;19.658;2023-05-03T05:19:21;7.55;;;5.28;;
28623;SDS011;15813;46.932;19.658;2023-05-03T05:21:46;442.55;;;397.88;;
28623;SDS011;15813;46.932;19.658;2023-05-03T05:24:12;461.33;;;423.20;;
28623;SDS011;15813;46.932;19.658;2023-05-03T05:26:37;478.23;;;435.45;;
28623;SDS011;15813;46.932;19.658;2023-05-03T05:29:02;578.92;;;445.20;;
28623;SDS011;15813;46.932;19.658;2023-05-03T05:31:27;21.30;;;13.05;;
28623;SDS011;15813;46.932;19.658;2023-05-03T05:33:53;15.85;;;8.30;;
28623;SDS011;15813;46.932;19.658;2023-05-03T05:36:18;9.40;;;5.15;;
28623;SDS011;15813;46.932;19.658;2023-05-03T05:38:44;10.27;;;5.30;;
28623;SDS011;15813;46.932;19.658;2023-05-03T05:41:09;20.67;;;12.73;;
28623;SDS011;15813;46.932;19.658;2023-05-03T05:43:35;13.75;;;5.78;;
28623;SDS011;15813;46.932;19.658;2023-05-03T05:46:00;14.15;;;6.35;;
28623;SDS011;15813;46.932;19.658;2023-05-03T05:48:25;14.40;;;5.78;;
28623;SDS011;15813;46.932;19.658;2023-05-03T05:50:51;9.07;;;5.80;;
28623;SDS011;15813;46.932;19.658;2023-05-03T05:53:16;17.20;;;5.95;;
28623;SDS011;15813;46.932;19.658;2023-05-03T05:55:41;20.55;;;11.95;;
28623;SDS011;15813;46.932;19.658;2023-05-03T05:58:07;18.02;;;5.82;;
28623;SDS011;15813;46.932;19.658;2023-05-03T06:00:32;9.50;;;5.40;;
28623;SDS011;15813;46.932;19.658;2023-05-03T06:02:57;11.82;;;5.75;;
28623;SDS011;15813;46.932;19.658;2023-05-03T06:05:22;7.13;;;5.03;;
28623;SDS011;15813;46.932;19.658;2023-05-03T06:07:48;12.45;;;5.38;;
28623;SDS011;15813;46.932;19.658;2023-05-03T06:10:13;9.73;;;4.93;;
28623;SDS011;15813;46.932;19.658;2023-05-03T06:12:39;12.60;;;5.25;;
28623;SDS011;15813;46.932;19.658;2023-05-03T06:15:05;45.88;;;25.90;;
28623;SDS011;15813;46.932;19.658;2023-05-03T06:17:31;6.68;;;4.65;;
28623;SDS011;15813;46.932;19.658;2023-05-03T06:19:56;9.85;;;4.20;;
28623;SDS011;15813;46.932;19.658;2023-05-03T06:22:22;8.88;;;4.72;;
28623;SDS011;15813;46.932;19.658;2023-05-03T06:24:47;11.27;;;4.93;;
28623;SDS011;15813;46.932;19.658;2023-05-03T06:27:12;6.85;;;4.72;;
28623;SDS011;15813;46.932;19.658;2023-05-03T06:29:37;11.50;;;4.80;;
28623;SDS011;15813;46.932;19.658;2023-05-03T06:32:03;6.68;;;4.63;;
28623;SDS011;15813;46.932;19.658;2023-05-03T06:34:28;9.00;;;4.82;;
28623;SDS011;15813;46.932;19.658;2023-05-03T06:36:54;6.50;;;4.28;;
28623;SDS011;15813;46.932;19.658;2023-05-03T06:39:19;6.15;;;4.45;;
28623;SDS011;15813;46.932;19.658;2023-05-03T06:41:44;9.35;;;4.03;;
28623;SDS011;15813;46.932;19.658;2023-05-03T06:44:10;7.30;;;3.88;;
28623;SDS011;15813;46.932;19.658;2023-05-03T06:46:35;7.15;;;4.00;;
28623;SDS011;15813;46.932;19.658;2023-05-03T06:49:00;9.00;;;4.00;;
28623;SDS011;15813;46.932;19.658;2023-05-03T06:51:26;11.73;;;3.92;;
28623;SDS011;15813;46.932;19.658;2023-05-03T06:53:53;13.45;;;5.22;;
28623;SDS011;15813;46.932;19.658;2023-05-03T06:56:20;10.40;;;4.63;;
28623;SDS011;15813;46.932;19.658;2023-05-03T06:58:45;11.82;;;4.60;;
28623;SDS011;15813;46.932;19.658;2023-05-03T07:01:11;9.88;;;3.83;;
28623;SDS011;15813;46.932;19.658;2023-05-03T07:03:36;7.85;;;3.85;;
28623;SDS011;15813;46.932;19.658;2023-05-03T07:06:01;7.95;;;3.60;;
28623;SDS011;15813;46.932;19.658;2023-05-03T07:08:27;10.00;;;4.88;;
28623;SDS011;15813;46.932;19.658;2023-05-03T07:10:53;7.18;;;3.88;;
28623;SDS011;15813;46.932;19.658;2023-05-03T07:13:18;8.77;;;4.22;;
28623;SDS011;15813;46.932;19.658;2023-05-03T07:15:43;6.50;;;3.23;;
28623;SDS011;15813;46.932;19.658;2023-05-03T07:18:10;11.15;;;3.90;;
28623;SDS011;15813;46.932;19.658;2023-05-03T07:20:35;6.47;;;3.55;;
28623;SDS011;15813;46.932;19.658;2023-05-03T07:23:00;6.75;;;3.45;;
28623;SDS011;15813;46.932;19.658;2023-05-03T07:25:26;11.90;;;3.67;;
28623;SDS011;15813;46.932;19.658;2023-05-03T07:27:51;7.07;;;3.85;;
28623;SDS011;15813;46.932;19.658;2023-05-03T07:30:16;6.05;;;3.65;;
28623;SDS011;15813;46.932;19.658;2023-05-03T07:32:42;10.63;;;4.25;;
28623;SDS011;15813;46.932;19.658;2023-05-03T07:35:07;9.25;;;3.55;;
28623;SDS011;15813;46.932;19.658;2023-05-03T07:37:33;10.10;;;4.00;;
28623;SDS011;15813;46.932;19.658;2023-05-03T07:39:58;12.73;;;3.92;;
28623;SDS011;15813;46.932;19.658;2023-05-03T07:42:23;11.23;;;4.30;;
28623;SDS011;15813;46.932;19.658;2023-05-03T07:44:49;11.00;;;3.80;;
28623;SDS011;15813;46.932;19.658;2023-05-03T07:47:15;8.30;;;3.70;;
28623;SDS011;15813;46.932;19.658;2023-05-03T07:49:41;8.07;;;3.93;;
28623;SDS011;15813;46.932;19.658;2023-05-03T07:52:06;10.63;;;4.47;;
28623;SDS011;15813;46.932;19.658;2023-05-03T07:54:31;10.45;;;3.42;;
28623;SDS011;15813;46.932;19.658;2023-05-03T07:56:57;8.73;;;3.97;;
28623;SDS011;15813;46.932;19.658;2023-05-03T07:59:22;12.18;;;3.90;;
28623;SDS011;15813;46.932;19.658;2023-05-03T08:01:47;9.45;;;3.50;;
28623;SDS011;15813;46.932;19.658;2023-05-03T08:04:13;9.70;;;3.67;;
28623;SDS011;15813;46.932;19.658;2023-05-03T08:06:38;14.02;;;3.63;;
28623;SDS011;15813;46.932;19.658;2023-05-03T08:09:03;11.70;;;3.50;;
28623;SDS011;15813;46.932;19.658;2023-05-03T08:11:29;5.78;;;3.55;;
28623;SDS011;15813;46.932;19.658;2023-05-03T08:13:55;11.80;;;3.90;;
28623;SDS011;15813;46.932;19.658;2023-05-03T08:16:20;11.48;;;3.28;;
28623;SDS011;15813;46.932;19.658;2023-05-03T08:18:45;13.10;;;3.60;;
28623;SDS011;15813;46.932;19.658;2023-05-03T08:21:11;7.55;;;3.28;;
28623;SDS011;15813;46.932;19.658;2023-05-03T08:23:37;13.10;;;3.15;;
28623;SDS011;15813;46.932;19.658;2023-05-03T08:26:03;7.50;;;3.38;;
28623;SDS011;15813;46.932;19.658;2023-05-03T08:28:29;7.63;;;3.35;;
28623;SDS011;15813;46.932;19.658;2023-05-03T08:30:55;11.43;;;3.30;;
28623;SDS011;15813;46.932;19.658;2023-05-03T08:33:20;8.02;;;3.38;;
28623;SDS011;15813;46.932;19.658;2023-05-03T08:35:46;4.97;;;2.93;;
28623;SDS011;15813;46.932;19.658;2023-05-03T08:38:11;4.97;;;3.10;;
28623;SDS011;15813;46.932;19.658;2023-05-03T08:40:37;9.85;;;3.15;;
28623;SDS011;15813;46.932;19.658;2023-05-03T08:43:07;7.65;;;2.90;;
28623;SDS011;15813;46.932;19.658;2023-05-03T08:45:33;7.50;;;3.17;;
28623;SDS011;15813;46.932;19.658;2023-05-03T08:47:59;6.47;;;2.95;;
28623;SDS011;15813;46.932;19.658;2023-05-03T08:50:26;12.02;;;3.08;;
28623;SDS011;15813;46.932;19.658;2023-05-03T08:52:52;6.38;;;2.80;;
28623;SDS011;15813;46.932;19.658;2023-05-03T08:55:18;4.43;;;2.97;;
28623;SDS011;15813;46.932;19.658;2023-05-03T08:57:43;8.30;;;3.15;;
28623;SDS011;15813;46.932;19.658;2023-05-03T09:00:08;4.40;;;2.90;;
28623;SDS011;15813;46.932;19.658;2023-05-03T09:02:38;8.93;;;2.85;;
28623;SDS011;15813;46.932;19.658;2023-05-03T09:05:05;6.47;;;2.80;;
28623;SDS011;15813;46.932;19.658;2023-05-03T09:07:30;4.82;;;2.72;;
28623;SDS011;15813;46.932;19.658;2023-05-03T09:09:56;9.18;;;2.92;;
28623;SDS011;15813;46.932;19.658;2023-05-03T09:12:35;4.20;;;2.50;;
28623;SDS011;15813;46.932;19.658;2023-05-03T09:15:00;10.95;;;3.70;;
28623;SDS011;15813;46.932;19.658;2023-05-03T09:17:27;7.45;;;2.33;;
28623;SDS011;15813;46.932;19.658;2023-05-03T09:19:55;3.20;;;2.50;;
28623;SDS011;15813;46.932;19.658;2023-05-03T09:22:25;16.55;;;3.30;;
28623;SDS011;15813;46.932;19.658;2023-05-03T09:24:51;3.55;;;2.38;;
28623;SDS011;15813;46.932;19.658;2023-05-03T09:27:17;5.95;;;2.50;;
28623;SDS011;15813;46.932;19.658;2023-05-03T09:29:43;6.25;;;2.45;;
28623;SDS011;15813;46.932;19.658;2023-05-03T09:32:09;6.13;;;2.50;;
28623;SDS011;15813;46.932;19.658;2023-05-03T09:34:35;6.72;;;2.22;;
28623;SDS011;15813;46.932;19.658;2023-05-03T09:37:01;3.60;;;2.35;;
28623;SDS011;15813;46.932;19.658;2023-05-03T09:39:26;6.15;;;2.83;;
28623;SDS011;15813;46.932;19.658;2023-05-03T09:41:51;6.40;;;2.60;;
28623;SDS011;15813;46.932;19.658;2023-05-03T09:44:17;6.13;;;2.30;;
28623;SDS011;15813;46.932;19.658;2023-05-03T09:47:04;3.72;;;2.25;;
28623;SDS011;15813;46.932;19.658;2023-05-03T09:49:32;2.97;;;2.08;;
28623;SDS011;15813;46.932;19.658;2023-05-03T09:52:00;5.63;;;2.30;;
28623;SDS011;15813;46.932;19.658;2023-05-03T09:54:25;4.40;;;2.10;;
28623;SDS011;15813;46.932;19.658;2023-05-03T09:56:51;6.93;;;1.90;;
28623;SDS011;15813;46.932;19.658;2023-05-03T09:59:17;5.88;;;2.25;;
28623;SDS011;15813;46.932;19.658;2023-05-03T10:01:42;7.67;;;2.37;;
28623;SDS011;15813;46.932;19.658;2023-05-03T10:04:08;4.90;;;1.90;;
28623;SDS011;15813;46.932;19.658;2023-05-03T10:06:42;11.30;;;2.35;;
28623;SDS011;15813;46.932;19.658;2023-05-03T10:09:12;6.90;;;2.05;;
28623;SDS011;15813;46.932;19.658;2023-05-03T10:11:42;4.95;;;2.72;;
28623;SDS011;15813;46.932;19.658;2023-05-03T10:14:10;4.38;;;2.28;;
28623;SDS011;15813;46.932;19.658;2023-05-03T10:16:37;4.03;;;2.63;;
28623;SDS011;15813;46.932;19.658;2023-05-03T10:19:13;4.82;;;2.47;;
28623;SDS011;15813;46.932;19.658;2023-05-03T10:24:14;3.95;;;2.30;;
28623;SDS011;15813;46.932;19.658;2023-05-03T10:26:46;3.38;;;2.03;;
28623;SDS011;15813;46.932;19.658;2023-05-03T10:31:55;4.57;;;2.38;;
28623;SDS011;15813;46.932;19.658;2023-05-03T10:34:21;6.65;;;2.40;;
28623;SDS011;15813;46.932;19.658;2023-05-03T10:36:47;6.75;;;1.95;;
28623;SDS011;15813;46.932;19.658;2023-05-03T10:39:17;4.35;;;2.50;;
28623;SDS011;15813;46.932;19.658;2023-05-03T10:41:43;23.90;;;2.90;;
28623;SDS011;15813;46.932;19.658;2023-05-03T10:44:25;4.88;;;2.40;;
28623;SDS011;15813;46.932;19.658;2023-05-03T10:46:51;5.40;;;2.40;;
28623;SDS011;15813;46.932;19.658;2023-05-03T10:49:18;9.48;;;2.45;;
28623;SDS011;15813;46.932;19.658;2023-05-03T10:51:43;3.97;;;2.30;;
28623;SDS011;15813;46.932;19.658;2023-05-03T10:54:09;6.38;;;2.17;;
28623;SDS011;15813;46.932;19.658;2023-05-03T10:56:46;5.03;;;2.17;;
28623;SDS011;15813;46.932;19.658;2023-05-03T10:59:11;5.38;;;2.33;;
28623;SDS011;15813;46.932;19.658;2023-05-03T11:01:36;2.70;;;2.10;;
28623;SDS011;15813;46.932;19.658;2023-05-03T11:04:20;5.75;;;2.95;;
28623;SDS011;15813;46.932;19.658;2023-05-03T11:06:46;8.45;;;2.58;;
28623;SDS011;15813;46.932;19.658;2023-05-03T11:09:15;3.55;;;2.35;;
28623;SDS011;15813;46.932;19.658;2023-05-03T11:11:41;7.63;;;2.90;;
28623;SDS011;15813;46.932;19.658;2023-05-03T11:14:07;3.30;;;2.35;;
28623;SDS011;15813;46.932;19.658;2023-05-03T11:16:33;5.78;;;2.45;;
28623;SDS011;15813;46.932;19.658;2023-05-03T11:19:00;11.27;;;2.53;;
28623;SDS011;15813;46.932;19.658;2023-05-03T11:21:26;5.38;;;2.28;;
28623;SDS011;15813;46.932;19.658;2023-05-03T11:23:51;3.88;;;2.03;;
28623;SDS011;15813;46.932;19.658;2023-05-03T11:26:16;4.20;;;2.23;;
28623;SDS011;15813;46.932;19.658;2023-05-03T11:28:43;5.75;;;2.35;;
28623;SDS011;15813;46.932;19.658;2023-05-03T11:31:09;4.30;;;2.55;;
28623;SDS011;15813;46.932;19.658;2023-05-03T11:33:38;7.07;;;2.35;;
28623;SDS011;15813;46.932;19.658;2023-05-03T11:36:04;9.20;;;2.30;;
28623;SDS011;15813;46.932;19.658;2023-05-03T11:38:31;4.40;;;2.40;;
28623;SDS011;15813;46.932;19.658;2023-05-03T11:40:56;7.57;;;2.45;;
28623;SDS011;15813;46.932;19.658;2023-05-03T11:43:22;6.65;;;2.33;;
28623;SDS011;15813;46.932;19.658;2023-05-03T11:45:47;4.60;;;2.00;;
28623;SDS011;15813;46.932;19.658;2023-05-03T11:48:15;6.28;;;2.30;;
28623;SDS011;15813;46.932;19.658;2023-05-03T11:50:47;6.23;;;2.40;;
28623;SDS011;15813;46.932;19.658;2023-05-03T11:53:16;3.67;;;2.03;;
28623;SDS011;15813;46.932;19.658;2023-05-03T11:55:42;4.43;;;2.03;;
28623;SDS011;15813;46.932;19.658;2023-05-03T11:58:11;5.63;;;2.30;;
28623;SDS011;15813;46.932;19.658;2023-05-03T12:00:36;2.33;;;1.88;;
28623;SDS011;15813;46.932;19.658;2023-05-03T12:03:02;5.15;;;2.00;;
28623;SDS011;15813;46.932;19.658;2023-05-03T12:05:27;2.58;;;2.13;;
28623;SDS011;15813;46.932;19.658;2023-05-03T12:07:54;5.25;;;2.10;;
28623;SDS011;15813;46.932;19.658;2023-05-03T12:10:19;6.22;;;2.45;;
28623;SDS011;15813;46.932;19.658;2023-05-03T12:12:54;4.85;;;1.80;;
28623;SDS011;15813;46.932;19.658;2023-05-03T12:15:30;5.00;;;1.90;;
28623;SDS011;15813;46.932;19.658;2023-05-03T12:17:56;4.50;;;2.10;;
28623;SDS011;15813;46.932;19.658;2023-05-03T12:20:22;10.38;;;2.97;;
28623;SDS011;15813;46.932;19.658;2023-05-03T12:22:51;6.80;;;2.35;;
28623;SDS011;15813;46.932;19.658;2023-05-03T12:25:17;4.80;;;2.00;;
28623;SDS011;15813;46.932;19.658;2023-05-03T12:27:43;4.43;;;2.17;;
28623;SDS011;15813;46.932;19.658;2023-05-03T12:30:08;6.15;;;2.08;;
28623;SDS011;15813;46.932;19.658;2023-05-03T12:32:35;5.13;;;2.00;;
28623;SDS011;15813;46.932;19.658;2023-05-03T12:35:00;27.30;;;3.45;;
28623;SDS011;15813;46.932;19.658;2023-05-03T12:37:25;9.87;;;2.40;;
28623;SDS011;15813;46.932;19.658;2023-05-03T12:39:51;9.98;;;2.35;;
28623;SDS011;15813;46.932;19.658;2023-05-03T12:42:16;2.50;;;2.07;;
28623;SDS011;15813;46.932;19.658;2023-05-03T12:44:41;8.40;;;2.60;;
28623;SDS011;15813;46.932;19.658;2023-05-03T12:47:08;3.42;;;1.98;;
28623;SDS011;15813;46.932;19.658;2023-05-03T12:49:33;4.20;;;2.40;;
28623;SDS011;15813;46.932;19.658;2023-05-03T12:51:58;7.57;;;2.67;;
28623;SDS011;15813;46.932;19.658;2023-05-03T12:54:26;11.75;;;2.17;;
28623;SDS011;15813;46.932;19.658;2023-05-03T12:56:52;3.47;;;2.17;;
28623;SDS011;15813;46.932;19.658;2023-05-03T12:59:17;9.52;;;2.67;;
28623;SDS011;15813;46.932;19.658;2023-05-03T13:01:42;6.43;;;2.00;;
28623;SDS011;15813;46.932;19.658;2023-05-03T13:04:08;8.57;;;2.00;;
28623;SDS011;15813;46.932;19.658;2023-05-03T13:06:33;5.67;;;2.13;;
28623;SDS011;15813;46.932;19.658;2023-05-03T13:09:00;14.13;;;2.58;;
28623;SDS011;15813;46.932;19.658;2023-05-03T13:11:26;3.40;;;2.40;;
28623;SDS011;15813;46.932;19.658;2023-05-03T13:13:51;7.47;;;2.50;;
28623;SDS011;15813;46.932;19.658;2023-05-03T13:16:17;10.10;;;2.95;;
28623;SDS011;15813;46.932;19.658;2023-05-03T13:18:43;8.05;;;2.22;;
28623;SDS011;15813;46.932;19.658;2023-05-03T13:21:09;4.57;;;2.58;;
28623;SDS011;15813;46.932;19.658;2023-05-03T13:23:36;4.45;;;2.25;;
28623;SDS011;15813;46.932;19.658;2023-05-03T13:26:01;5.60;;;2.17;;
28623;SDS011;15813;46.932;19.658;2023-05-03T13:28:26;15.57;;;3.53;;
28623;SDS011;15813;46.932;19.658;2023-05-03T13:30:52;10.32;;;2.75;;
28623;SDS011;15813;46.932;19.658;2023-05-03T13:33:17;7.72;;;2.95;;
28623;SDS011;15813;46.932;19.658;2023-05-03T13:35:43;7.68;;;2.78;;
28623;SDS011;15813;46.932;19.658;2023-05-03T13:38:08;4.07;;;2.10;;
28623;SDS011;15813;46.932;19.658;2023-05-03T13:40:33;9.07;;;7.40;;
28623;SDS011;15813;46.932;19.658;2023-05-03T13:42:58;119.90;;;112.00;;
28623;SDS011;15813;46.932;19.658;2023-05-03T13:45:24;223.43;;;208.80;;
28623;SDS011;15813;46.932;19.658;2023-05-03T13:47:49;321.60;;;299.65;;
28623;SDS011;15813;46.932;19.658;2023-05-03T13:50:15;544.87;;;502.27;;
28623;SDS011;15813;46.932;19.658;2023-05-03T13:52:40;266.45;;;210.48;;
28623;SDS011;15813;46.932;19.658;2023-05-03T13:55:06;460.80;;;424.30;;
28623;SDS011;15813;46.932;19.658;2023-05-03T13:57:32;1029.13;;;922.80;;
28623;SDS011;15813;46.932;19.658;2023-05-03T13:59:57;1053.88;;;949.10;;
28623;SDS011;15813;46.932;19.658;2023-05-03T14:02:22;1035.75;;;924.45;;
28623;SDS011;15813;46.932;19.658;2023-05-03T14:04:48;1034.77;;;925.43;;
28623;SDS011;15813;46.932;19.658;2023-05-03T14:07:13;1036.40;;;925.83;;
28623;SDS011;15813;46.932;19.658;2023-05-03T14:09:39;1001.90;;;888.67;;
28623;SDS011;15813;46.932;19.658;2023-05-03T14:12:05;216.90;;;198.65;;
28623;SDS011;15813;46.932;19.658;2023-05-03T14:14:31;818.15;;;754.53;;
28623;SDS011;15813;46.932;19.658;2023-05-03T14:16:56;931.20;;;854.03;;
28623;SDS011;15813;46.932;19.658;2023-05-03T14:19:21;965.63;;;880.08;;
28623;SDS011;15813;46.932;19.658;2023-05-03T14:21:47;958.38;;;872.67;;
28623;SDS011;15813;46.932;19.658;2023-05-03T14:24:14;247.68;;;178.13;;
28623;SDS011;15813;46.932;19.658;2023-05-03T14:26:39;389.10;;;362.35;;
28623;SDS011;15813;46.932;19.658;2023-05-03T14:29:05;500.90;;;462.92;;
28623;SDS011;15813;46.932;19.658;2023-05-03T14:31:31;12.05;;;3.15;;